Terminal Aerodrome Forecast
Issued by NWS

Current Version | Previous Version | Text Only | Print | Product List | Glossary On
Versions: 1 2 3 4 5 6 7 8 9 10 11 12 13 14 15 16 17 18 19 20 21 22 23 24 25
378
FTUS44 KFWD 131122
TAFDAL
TAF
KDAL 131122Z 1312/1412 05008KT P6SM FEW030
     FM131700 12010KT P6SM SCT040
      TEMPO 1318/1321 BKN040
     FM132100 14013KT P6SM BKN040
     FM140300 16015KT P6SM BKN020
     FM140600 18015KT P6SM OVC012=

USA.gov is the U.S. government's official web portal to all federal, state and local government web resources and services.